Flight Track Log - Related Links

Times and Time Zones

All times are in EDT time to prevent confusion due to time zone crossing. See the SWA1103 flight status page for this flight to view local times or setup timezone preferences in your user account.

Time Position Orientation Groundspeed Altitude Reporting Facility
EDT Latitude Longitude Course Direction KTS MPH feet Rate Location/Type
Sun 05:46:21 PM 39.1333 -76.7000 211° Southwest 224 258 2,200  Level Potomac TRACON
Sun 05:47:21 PM 39.1833 -76.7500 322° Northwest 244 281 4,600 2,350 Climbing Potomac TRACON
Sun 05:48:21 PM 39.2000 -76.8500 282° West 283 326 6,900 2,900 Climbing Potomac TRACON
Sun 05:49:21 PM 39.2167 -76.9500 282° West 298 343 10,400 2,678 Climbing Potomac TRACON
Sun 05:50:22 PM 39.2167 -77.0833 270° West 351 404 12,300 2,380 Climbing Potomac TRACON
Sun 05:51:00 PM 39.0692 -77.2555 211° Southwest  Level FlightAware Approximate
Sun 05:51:22 PM 39.1667 -77.1833 237° Southwest 377 434 15,200  Level Potomac TRACON
Sun 05:53:14 PM 39.0689 -77.3803 237° Southwest 408 470 19,300 2,220 Climbing Washington Center
Sun 05:54:15 PM 39.0522 -77.5267 262° West 425 489 21,600 2,066 Climbing Washington Center
Sun 05:55:16 PM 39.0308 -77.6786 260° West 431 496 23,500 1,983 Climbing Washington Center
Sun 05:56:13 PM 39.0133 -77.8356 262° West 443 510 25,500 1,180 Climbing Washington Center
Sun 05:58:14 PM 38.9719 -78.1333 260° West 449 517 27,000 492 Climbing Washington Center
Sun 05:59:16 PM 38.9622 -78.2933 266° West 449 517 27,000 367 Level Washington Center
Sun 06:01:14 PM 38.9736 -78.6114 273° West 439 505 28,100 872 Climbing Washington Center
Sun 06:02:15 PM 38.9778 -78.7719 272° West 449 517 29,600 1,721 Climbing Washington Center
Sun 06:03:16 PM 38.9817 -78.9297 272° West 449 517 31,600 1,815 Climbing Washington Center
Sun 06:04:14 PM 38.9878 -79.0847 273° West 449 517 33,200 1,361 Climbing Washington Center
Sun 06:05:15 PM 38.9914 -79.2453 272° West 443 510 34,300 885 Climbing Washington Center
Sun 06:06:16 PM 38.9947 -79.4031 272° West 443 510 35,000 864 Climbing Washington Center
Sun 06:07:13 PM 38.9981 -79.5556 272° West 443 510 36,000 508 Climbing Washington Center
Sun 06:08:14 PM 39.0014 -79.7106 272° West 443 510 36,000  Level Washington Center
Sun 06:10:11 PM 39.0028 -80.0050 270° West 428 493 36,000  Level Indianapolis Center
Sun 06:11:13 PM 39.0056 -80.1625 271° West 428 493 36,000  Level Indianapolis Center
Sun 06:12:15 PM 39.0078 -80.3181 271° West 434 499 36,000  Level Indianapolis Center
Sun 06:13:17 PM 39.0106 -80.4719 271° West 433 498 36,000  Level Indianapolis Center
Sun 06:14:19 PM 39.0119 -80.6581 271° West 435 501 36,000  Level Indianapolis Center
Sun 06:16:23 PM 39.0908 -80.9500 289° West 455 524 36,000  Level Indianapolis Center
Sun 06:17:25 PM 39.1542 -81.0881 301° West 451 519 36,000  Level Indianapolis Center
Sun 06:18:27 PM 39.2197 -81.2272 301° West 455 524 36,000  Level Indianapolis Center
Sun 06:19:29 PM 39.2997 -81.3947 302° West 458 527 36,000  Level Indianapolis Center
Sun 06:20:31 PM 39.3647 -81.5361 301° West 460 529 36,000  Level Indianapolis Center
Sun 06:21:33 PM 39.4314 -81.6769 302° West 460 529 36,000  Level Indianapolis Center
Sun 06:22:35 PM 39.4972 -81.8178 301° West 460 529 36,000  Level Indianapolis Center
Sun 06:23:37 PM 39.5636 -81.9608 301° West 463 533 36,000  Level Indianapolis Center
Sun 06:24:39 PM 39.6294 -82.1061 301° West 467 537 36,000  Level Indianapolis Center
Sun 06:25:41 PM 39.7089 -82.2792 301° West 469 540 36,000  Level Indianapolis Center
Sun 06:26:43 PM 39.7764 -82.4256 301° West 469 540 36,000  Level Indianapolis Center
Sun 06:27:46 PM 39.8428 -82.5742 300° West 473 544 36,000  Level Indianapolis Center
Sun 06:28:48 PM 39.9103 -82.7211 301° West 471 542 36,000  Level Indianapolis Center
Sun 06:29:50 PM 39.9769 -82.8706 300° West 474 545 36,000  Level Indianapolis Center
Sun 06:30:52 PM 40.0431 -83.0189 300° West 473 544 36,000  Level Indianapolis Center
Sun 06:31:54 PM 40.1206 -83.1919 300° West 474 545 36,000  Level Indianapolis Center
Sun 06:32:56 PM 40.1872 -83.3411 300° West 475 547 36,000  Level Indianapolis Center
Sun 06:33:58 PM 40.2528 -83.4908 300° West 474 545 36,000  Level Indianapolis Center
Sun 06:35:00 PM 40.3189 -83.6403 300° West 474 545 36,000  Level Indianapolis Center
Sun 06:36:02 PM 40.3839 -83.7908 300° West 474 545 36,000 -145 Level Indianapolis Center
Sun 06:37:04 PM 40.4497 -83.9417 300° West 473 544 35,700 -726 Descending Indianapolis Center
Sun 06:38:06 PM 40.5267 -84.1186 300° West 475 547 34,500 -1,065 Descending Indianapolis Center
Sun 06:39:08 PM 40.5908 -84.2686 299° West 470 541 33,500 -1,016 Descending Indianapolis Center
Sun 06:40:10 PM 40.6539 -84.4158 299° West 461 531 32,400 -1,091 Descending Indianapolis Center
Sun 06:40:25 PM 40.6750 -84.4622 301° West 460 529 32,100 -1,013 Descending Chicago Center
Sun 06:41:27 PM 40.7350 -84.6069 299° West 453 521 31,100 -968 Descending Chicago Center
Sun 06:42:29 PM 40.7956 -84.7481 300° West 446 513 30,100 -629 Descending Chicago Center
Sun 06:43:31 PM 40.8542 -84.8881 299° West 439 505 29,800 -629 Descending Chicago Center
Sun 06:44:33 PM 40.9308 -85.0144 309° West 450 518 28,800 -968 Descending Chicago Center
Sun 06:45:35 PM 41.0294 -85.1125 323° Northwest 445 512 27,800 -864 Descending Chicago Center
Sun 06:46:38 PM 41.1264 -85.2081 323° Northwest 437 503 27,000 -384 Descending Chicago Center
Sun 06:47:40 PM 41.2417 -85.3217 323° Northwest 432 497 27,000  Level Chicago Center
Sun 06:48:42 PM 41.3317 -85.4233 320° Northwest 430 495 27,000 -1,113 Level Chicago Center
Sun 06:49:44 PM 41.3847 -85.5781 295° West 457 526 24,700 -2,565 Descending Chicago Center
Sun 06:50:46 PM 41.4336 -85.7361 292° West 457 526 21,700 -2,806 Descending Chicago Center
Sun 06:51:48 PM 41.4639 -85.8967 284° West 442 509 18,900 -2,565 Descending Chicago Center
Sun 06:52:50 PM 41.4814 -86.0517 279° West 426 490 16,400 -2,516 Descending Chicago Center
Sun 06:53:52 PM 41.5000 -86.2075 279° West 425 489 13,700 -2,516 Descending Chicago Center
Sun 06:54:54 PM 41.5203 -86.3792 279° West 393 452 11,200 -1,742 Descending Chicago Center
Sun 06:55:56 PM 41.5206 -86.5058 270° West 343 395 10,100 -581 Descending Chicago Center
Sun 06:56:58 PM 41.5206 -86.6292 270° West 332 382 10,000 -613 Descending Chicago Center
Sun 06:58:00 PM 41.5167 -86.7860 270° West  Level FlightAware Approximate
Sun 06:59:02 PM 41.5189 -86.8692 270° West 301 346 8,200  Level Chicago Center
Sun 07:00:04 PM 41.5181 -86.9806 269° West 301 346 6,600 -1,104 Descending Chicago Center
Sun 07:01:07 PM 41.5181 -87.0886 270° West 296 341 5,900 -240 Descending Chicago Center
Sun 07:02:09 PM 41.5286 -87.1947 278° West 291 335 6,100 -303 Climbing Chicago Center
Sun 07:03:06 PM 41.5333 -87.3000 273° West 283 326 5,300 -968 Descending Chicago TRACON
Sun 07:04:13 PM 41.5533 -87.4219 282° West 282 325 4,100 -558 Descending Chicago Center
Sun 07:05:15 PM 41.5639 -87.5244 278° West 281 323 4,100  Level Chicago Center
Sun 07:06:17 PM 41.5747 -87.6267 278° West 281 323 4,100 -48 Level Chicago Center
Sun 07:07:19 PM 41.5867 -87.7242 279° West 277 319 4,000 -528 Descending Chicago Center
Sun 07:08:22 PM 41.6236 -87.8167 298° West 252 290 3,000 -778 Descending Chicago Center
Sun 07:09:07 PM 41.6500 -87.8667 305° West 209 241 2,600 -492 Descending Chicago TRACON
Sun 07:09:23 PM 41.6572 -87.8808 304° West 231 266 2,500  Descending Chicago Center
Sun 07:10:25 PM 41.6956 -87.8667 15° North 192 221 2,600 -115 Climbing Chicago Center
Sun 07:11:07 PM 41.7167 -87.8333 50° Northeast 156 180 2,300 -588 Descending Chicago TRACON
Sun 07:12:07 PM 41.7500 -87.8000 37° Northeast 127 146 1,600 -700 Descending Chicago TRACON
Sun 07:13:07 PM 41.7667 -87.7667 56° Northeast 132 152 900 -700 Descending Chicago TRACON
Sun 07:15:00 PM 41.7833 -87.7500 33° Northeast  Level FlightAware Approximate

Login

Don't have an account? Register now (free) for customized features, flight alerts, and more!